Time;durP1;ratioP1;P1;durP2;ratioP2;P2;SDS_P1;SDS_P2;PMS_P1;PMS_P2;Temp;Humidity;BMP_temperature;BMP_pressure;BME280_temperature;BME280_humidity;BME280_pressure;Samples;Min_cycle;Max_cycle;Signal;HPM_P1;HPM_P2
2024/01/30 00:01:50;;;;;;;0.28;0.28;;;;;;;12.92;100.00;102706.59;5072021;28;20082;-69
2024/01/30 00:04:16;;;;;;;0.40;0.40;;;;;;;12.77;100.00;102700.47;5054264;28;20031;-67
2024/01/30 00:06:42;;;;;;;0.45;0.45;;;;;;;12.66;100.00;102704.50;5072632;28;20393;-69
2024/01/30 00:09:08;;;;;;;0.38;0.38;;;;;;;12.85;100.00;102693.09;5072021;28;20024;-68
2024/01/30 00:11:34;;;;;;;0.30;0.30;;;;;;;12.78;100.00;102689.47;5072118;28;20062;-67
2024/01/30 00:13:59;;;;;;;0.40;0.40;;;;;;;12.86;100.00;102688.50;5071950;28;20036;-67
2024/01/30 00:16:25;;;;;;;0.40;0.40;;;;;;;12.70;100.00;102697.69;5071919;28;20024;-67
2024/01/30 00:18:52;;;;;;;0.30;0.30;;;;;;;12.74;100.00;102703.53;5071954;28;20035;-70
2024/01/30 00:21:17;;;;;;;0.43;0.43;;;;;;;12.81;100.00;102699.06;5071972;28;20496;-67
2024/01/30 00:23:43;;;;;;;0.32;0.32;;;;;;;12.70;100.00;102699.56;5053869;28;20075;-68
2024/01/30 00:26:08;;;;;;;0.30;0.30;;;;;;;12.66;100.00;102709.91;5071875;28;20426;-68
2024/01/30 00:28:33;;;;;;;0.20;0.20;;;;;;;12.67;100.00;102697.25;5071859;28;20036;-68
2024/01/30 00:30:59;;;;;;;0.45;0.45;;;;;;;12.55;100.00;102699.66;5071880;28;20180;-67
2024/01/30 00:33:24;;;;;;;0.20;0.20;;;;;;;12.72;100.00;102706.44;5071909;28;20218;-69
2024/01/30 00:35:50;;;;;;;0.30;0.30;;;;;;;12.73;100.00;102696.50;5071293;28;20032;-68
2024/01/30 00:38:15;;;;;;;0.22;0.22;;;;;;;12.77;100.00;102701.31;5071555;28;20468;-69
2024/01/30 00:40:41;;;;;;;0.30;0.30;;;;;;;12.66;100.00;102696.41;5071653;28;20028;-68
2024/01/30 00:43:06;;;;;;;0.32;0.32;;;;;;;12.56;100.00;102695.09;5071366;28;20531;-69
2024/01/30 00:45:31;;;;;;;0.38;0.38;;;;;;;12.45;100.00;102690.19;5071544;28;20039;-67
2024/01/30 00:47:57;;;;;;;0.35;0.35;;;;;;;12.59;100.00;102698.25;5071345;28;20160;-68
2024/01/30 00:50:22;;;;;;;0.32;0.32;;;;;;;12.62;100.00;102692.44;5070431;28;20107;-67
2024/01/30 00:52:47;;;;;;;0.50;0.50;;;;;;;12.70;100.00;102696.88;5071334;28;20105;-69
2024/01/30 00:55:14;;;;;;;0.30;0.30;;;;;;;12.74;100.00;102700.84;5071287;28;20469;-69
2024/01/30 00:57:39;;;;;;;0.20;0.20;;;;;;;12.61;100.00;102698.03;5071410;28;20498;-68
2024/01/30 01:00:07;;;;;;;0.30;0.30;;;;;;;12.64;100.00;102687.69;5071223;28;20032;-68
2024/01/30 01:02:34;;;;;;;0.40;0.40;;;;;;;12.71;100.00;102685.91;5070904;28;20036;-67
2024/01/30 01:05:00;;;;;;;0.40;0.40;;;;;;;12.70;100.00;102688.78;5071115;28;20456;-67
2024/01/30 01:07:25;;;;;;;0.30;0.30;;;;;;;12.76;100.00;102685.28;5071371;28;20115;-67
2024/01/30 01:09:50;;;;;;;0.30;0.30;;;;;;;12.78;100.00;102691.34;5071375;28;20037;-67
2024/01/30 01:12:16;;;;;;;0.40;0.40;;;;;;;12.86;100.00;102688.50;5071231;28;20123;-67
2024/01/30 01:14:41;;;;;;;0.45;0.45;;;;;;;12.86;100.00;102688.50;5071031;28;20029;-68
2024/01/30 01:17:07;;;;;;;0.40;0.40;;;;;;;12.89;100.00;102683.53;5070749;28;20552;-69
2024/01/30 01:19:32;;;;;;;0.40;0.40;;;;;;;12.78;100.00;102683.25;5070985;28;20154;-68
2024/01/30 01:21:58;;;;;;;0.20;0.20;;;;;;;12.78;100.00;102678.69;5070992;28;20040;-67
2024/01/30 01:24:23;;;;;;;0.30;0.30;;;;;;;12.73;100.00;102675.75;5071126;28;20060;-68
2024/01/30 01:26:49;;;;;;;0.30;0.30;;;;;;;12.67;100.00;102678.38;5070887;28;20032;-67
2024/01/30 01:29:15;;;;;;;0.30;0.30;;;;;;;12.59;100.00;102670.41;5070728;28;20392;-67
2024/01/30 01:31:43;;;;;;;0.30;0.30;;;;;;;12.74;100.00;102666.63;5070338;28;20060;-66
2024/01/30 01:34:12;;;;;;;0.20;0.20;;;;;;;12.53;100.00;102673.88;5070574;28;20108;-67
2024/01/30 01:36:38;;;;;;;0.25;0.25;;;;;;;12.59;100.00;102673.97;5070743;28;20040;-67
2024/01/30 01:39:04;;;;;;;0.20;0.20;;;;;;;12.55;100.00;102677.22;5070354;28;20399;-67
2024/01/30 01:41:32;;;;;;;0.30;0.30;;;;;;;12.58;100.00;102680.38;5070279;28;20029;-67
2024/01/30 01:43:59;;;;;;;0.30;0.30;;;;;;;12.21;100.00;102673.38;5070350;28;20166;-68
2024/01/30 01:46:27;;;;;;;0.13;0.13;;;;;;;12.30;100.00;102671.41;5070267;28;20032;-68
2024/01/30 01:48:53;;;;;;;0.20;0.20;;;;;;;12.43;100.00;102670.69;5070526;28;20029;-67
2024/01/30 01:51:19;;;;;;;0.30;0.30;;;;;;;12.56;100.00;102657.34;5070304;28;20051;-67
2024/01/30 01:53:44;;;;;;;0.40;0.40;;;;;;;12.71;100.00;102660.78;5070340;28;20408;-68
2024/01/30 01:56:10;;;;;;;0.40;0.40;;;;;;;12.34;100.00;102659.22;5069893;28;20115;-68
2024/01/30 01:58:37;;;;;;;0.38;0.38;;;;;;;12.64;100.00;102649.94;5069885;28;20052;-68
2024/01/30 02:01:04;;;;;;;0.22;0.22;;;;;;;12.71;100.00;102658.94;5069798;28;20031;-68
2024/01/30 02:03:30;;;;;;;0.30;0.30;;;;;;;12.63;100.00;102660.91;5070100;28;20516;-66
2024/01/30 02:05:56;;;;;;;0.20;0.20;;;;;;;12.58;100.00;102661.50;5069855;28;20039;-67
2024/01/30 02:08:23;;;;;;;0.40;0.40;;;;;;;12.44;100.00;102659.72;5069828;28;20024;-66
2024/01/30 02:10:49;;;;;;;0.20;0.20;;;;;;;12.63;100.00;102653.66;5069841;28;20037;-68
2024/01/30 02:13:14;;;;;;;0.30;0.30;;;;;;;12.48;100.00;102647.50;5069679;28;20466;-69
2024/01/30 02:15:40;;;;;;;0.30;0.30;;;;;;;12.73;100.00;102647.94;5069977;28;20117;-68
2024/01/30 02:18:05;;;;;;;0.25;0.25;;;;;;;12.84;100.00;102634.75;5051499;28;20391;-68
2024/01/30 02:20:32;;;;;;;0.20;0.20;;;;;;;12.80;100.00;102632.63;5069636;28;20412;-68
2024/01/30 02:23:01;;;;;;;0.20;0.20;;;;;;;12.79;100.00;102636.38;5051133;28;20044;-67
2024/01/30 02:25:44;;;;;;;0.20;0.20;;;;;;;12.98;100.00;102641.91;5069457;28;20032;-67
2024/01/30 02:28:13;;;;;;;0.30;0.30;;;;;;;12.76;100.00;102634.03;5069295;28;20453;-67
2024/01/30 02:30:39;;;;;;;0.30;0.30;;;;;;;12.68;100.00;102629.63;5069604;28;20436;-68
2024/01/30 02:33:05;;;;;;;0.47;0.47;;;;;;;12.78;100.00;102627.44;5069200;28;20082;-67
2024/01/30 02:35:30;;;;;;;0.30;0.30;;;;;;;12.87;100.00;102625.44;5069177;28;20037;-67
2024/01/30 02:37:55;;;;;;;0.20;0.20;;;;;;;12.79;100.00;102625.56;5068168;28;20024;-68
2024/01/30 02:40:21;;;;;;;0.38;0.38;;;;;;;12.68;100.00;102632.31;5069366;28;20059;-68
2024/01/30 02:42:46;;;;;;;0.40;0.40;;;;;;;12.75;100.00;102618.91;5069678;28;20096;-68
2024/01/30 02:45:12;;;;;;;0.40;0.40;;;;;;;12.90;100.00;102625.03;5069233;28;20063;-68
2024/01/30 02:47:38;;;;;;;0.30;0.30;;;;;;;12.87;100.00;102620.03;5069069;28;20082;-67
2024/01/30 02:50:04;;;;;;;0.30;0.30;;;;;;;12.96;100.00;102624.22;5069321;28;20041;-69
2024/01/30 02:52:29;;;;;;;0.40;0.40;;;;;;;13.00;100.00;102623.66;5069294;28;20059;-67
2024/01/30 02:54:55;;;;;;;0.30;0.30;;;;;;;12.79;100.00;102620.19;5069432;28;20115;-68
2024/01/30 02:57:20;;;;;;;0.40;0.40;;;;;;;12.86;100.00;102615.66;5069354;28;20033;-67
2024/01/30 02:59:45;;;;;;;0.40;0.40;;;;;;;12.86;100.00;102613.78;5064668;28;20131;-68
2024/01/30 03:02:11;;;;;;;0.30;0.30;;;;;;;12.87;100.00;102626.28;5068923;28;20042;-69
2024/01/30 03:04:36;;;;;;;0.30;0.30;;;;;;;12.86;100.00;102621.88;5068988;28;20051;-69
2024/01/30 03:07:01;;;;;;;0.38;0.38;;;;;;;12.99;100.00;102626.56;5068969;28;20055;-68
2024/01/30 03:09:27;;;;;;;0.40;0.40;;;;;;;12.61;100.00;102617.13;5051254;28;20115;-67
2024/01/30 03:11:52;;;;;;;0.30;0.30;;;;;;;12.84;100.00;102615.84;5068950;28;20039;-68
2024/01/30 03:14:18;;;;;;;0.30;0.30;;;;;;;12.92;100.00;102613.00;5068600;28;20051;-68
2024/01/30 03:16:43;;;;;;;0.20;0.20;;;;;;;12.84;100.00;102609.63;5068993;28;20503;-67
2024/01/30 03:19:09;;;;;;;0.25;0.25;;;;;;;12.95;100.00;102609.09;5060155;28;20510;-68
2024/01/30 03:21:34;;;;;;;0.20;0.20;;;;;;;12.86;100.00;102603.00;5049255;28;20029;-68
2024/01/30 03:24:00;;;;;;;0.50;0.50;;;;;;;12.91;100.00;102591.63;5048753;28;20445;-68
2024/01/30 03:26:25;;;;;;;0.30;0.30;;;;;;;13.02;100.00;102594.59;5048888;28;20029;-68
2024/01/30 03:28:50;;;;;;;0.40;0.40;;;;;;;12.97;100.00;102588.94;5048867;28;20040;-69
2024/01/30 03:31:16;;;;;;;0.22;0.22;;;;;;;12.94;100.00;102592.06;5048645;28;20029;-68
2024/01/30 03:33:41;;;;;;;0.20;0.20;;;;;;;12.88;100.00;102584.75;5048788;28;20584;-68
2024/01/30 03:36:08;;;;;;;0.30;0.30;;;;;;;12.65;100.00;102581.47;5048580;28;20059;-68
2024/01/30 03:38:33;;;;;;;0.20;0.20;;;;;;;12.66;100.00;102572.34;5048720;28;20029;-67
2024/01/30 03:40:59;;;;;;;0.32;0.32;;;;;;;12.38;100.00;102574.22;5048550;28;20366;-68
2024/01/30 03:43:24;;;;;;;0.40;0.40;;;;;;;12.80;100.00;102578.66;5048859;28;20025;-68
2024/01/30 03:45:50;;;;;;;0.30;0.30;;;;;;;12.84;100.00;102561.91;5048999;28;20025;-68
2024/01/30 03:48:15;;;;;;;0.22;0.22;;;;;;;12.83;100.00;102562.09;5048163;28;20463;-68
2024/01/30 03:50:41;;;;;;;0.40;0.40;;;;;;;12.71;100.00;102564.50;5048645;28;20457;-69
2024/01/30 03:53:06;;;;;;;0.30;0.30;;;;;;;12.94;100.00;102564.22;5048729;28;20481;-68
2024/01/30 03:55:31;;;;;;;0.32;0.32;;;;;;;12.98;100.00;102589.78;5059681;28;20111;-68
2024/01/30 03:57:56;;;;;;;0.20;0.20;;;;;;;12.66;100.00;102588.53;5068528;28;20407;-67
2024/01/30 04:00:22;;;;;;;0.30;0.30;;;;;;;13.14;100.00;102581.41;5068620;28;20423;-67
2024/01/30 04:02:47;;;;;;;0.35;0.35;;;;;;;13.37;100.00;102562.19;5068312;28;20369;-65
2024/01/30 04:05:13;;;;;;;0.30;0.30;;;;;;;12.99;100.00;102551.00;5050152;28;20398;-67
2024/01/30 04:07:38;;;;;;;0.30;0.30;;;;;;;13.13;100.00;102545.47;5068548;28;20029;-66
2024/01/30 04:10:05;;;;;;;0.20;0.20;;;;;;;13.13;100.00;102541.94;5068477;28;20539;-65
2024/01/30 04:12:31;;;;;;;0.40;0.40;;;;;;;13.13;100.00;102548.19;5050883;28;20299;-65
2024/01/30 04:14:56;;;;;;;0.50;0.50;;;;;;;12.74;100.00;102547.09;5068212;28;20044;-66
2024/01/30 04:17:22;;;;;;;0.40;0.40;;;;;;;13.19;100.00;102552.78;5067971;28;20036;-66
2024/01/30 04:19:47;;;;;;;0.30;0.30;;;;;;;12.77;100.00;102552.09;5054392;28;20447;-66
2024/01/30 04:22:12;;;;;;;0.25;0.25;;;;;;;13.37;100.00;102549.53;5048372;28;20167;-65
2024/01/30 04:24:38;;;;;;;0.30;0.30;;;;;;;13.53;100.00;102548.34;5048591;28;20029;-66
2024/01/30 04:27:04;;;;;;;0.30;0.30;;;;;;;13.23;100.00;102540.53;5050863;28;20056;-67
2024/01/30 04:29:29;;;;;;;0.28;0.28;;;;;;;13.00;100.00;102540.00;5033692;28;20041;-65
2024/01/30 04:31:54;;;;;;;0.30;0.30;;;;;;;13.20;100.00;102534.72;5051664;28;20049;-66
2024/01/30 04:34:20;;;;;;;0.30;0.30;;;;;;;13.41;100.00;102521.09;5051658;28;20033;-66
2024/01/30 04:36:46;;;;;;;0.30;0.30;;;;;;;13.27;100.00;102534.75;5051669;28;20507;-66
2024/01/30 04:39:12;;;;;;;0.25;0.25;;;;;;;12.94;100.00;102534.56;5051336;28;20044;-65
2024/01/30 04:41:37;;;;;;;0.35;0.35;;;;;;;13.30;100.00;102534.34;5051768;28;20115;-65
2024/01/30 04:44:03;;;;;;;0.20;0.20;;;;;;;13.49;100.00;102537.13;5051603;28;20451;-67
2024/01/30 04:46:28;;;;;;;0.20;0.20;;;;;;;13.03;100.00;102531.50;5051552;28;20063;-65
2024/01/30 04:48:54;;;;;;;0.40;0.40;;;;;;;13.14;100.00;102536.38;5051425;28;20024;-65
2024/01/30 04:51:19;;;;;;;0.40;0.40;;;;;;;13.17;100.00;102548.59;5051521;28;20548;-65
2024/01/30 04:53:45;;;;;;;0.40;0.40;;;;;;;13.43;100.00;102542.47;5051636;28;20029;-65
2024/01/30 04:56:10;;;;;;;0.20;0.20;;;;;;;13.24;100.00;102552.19;5067894;28;20047;-64
2024/01/30 04:58:36;;;;;;;0.40;0.40;;;;;;;13.37;100.00;102549.53;5071077;28;20056;-65
2024/01/30 05:01:02;;;;;;;0.32;0.32;;;;;;;13.35;100.00;102557.00;5064916;28;20085;-65
2024/01/30 05:03:27;;;;;;;0.32;0.32;;;;;;;13.68;100.00;102557.13;5034027;28;20087;-67
2024/01/30 05:05:53;;;;;;;0.38;0.38;;;;;;;13.38;100.00;102551.22;5030868;28;20449;-66
2024/01/30 05:08:18;;;;;;;0.47;0.47;;;;;;;13.44;100.00;102549.56;5044242;28;20103;-66
2024/01/30 05:10:44;;;;;;;0.40;0.40;;;;;;;13.56;100.00;102548.75;5038939;28;20037;-66
2024/01/30 05:13:09;;;;;;;0.30;0.30;;;;;;;13.73;100.00;102539.28;5048902;28;20106;-66
2024/01/30 05:15:35;;;;;;;0.30;0.30;;;;;;;13.62;100.00;102536.34;5051031;28;20132;-64
2024/01/30 05:18:00;;;;;;;0.20;0.20;;;;;;;13.39;100.00;102527.72;5050284;28;20123;-65
2024/01/30 05:20:27;;;;;;;0.40;0.40;;;;;;;13.62;100.00;102520.94;5050890;28;20072;-65
2024/01/30 05:22:53;;;;;;;0.38;0.38;;;;;;;13.52;100.00;102514.28;5050916;28;20079;-65
2024/01/30 05:25:19;;;;;;;0.30;0.30;;;;;;;13.74;100.00;102524.72;5050655;28;20024;-66
2024/01/30 05:27:44;;;;;;;0.40;0.40;;;;;;;13.77;100.00;102524.31;5050938;28;20025;-65
2024/01/30 05:30:10;;;;;;;0.20;0.20;;;;;;;13.77;100.00;102534.28;5050340;28;20434;-65
2024/01/30 05:32:35;;;;;;;0.30;0.30;;;;;;;13.67;100.00;102523.88;5049179;28;20100;-66
2024/01/30 05:35:01;;;;;;;0.40;0.40;;;;;;;13.05;100.00;102534.03;5050639;28;20032;-66
2024/01/30 05:37:26;;;;;;;0.28;0.28;;;;;;;13.51;100.00;102529.63;5050008;28;20029;-66
2024/01/30 05:39:52;;;;;;;0.43;0.43;;;;;;;13.80;100.00;102547.38;5051012;28;20029;-64
2024/01/30 05:42:17;;;;;;;0.20;0.20;;;;;;;13.66;100.00;102548.41;5050869;28;20043;-64
2024/01/30 05:44:42;;;;;;;0.30;0.30;;;;;;;13.66;100.00;102545.69;5051052;28;20029;-65
2024/01/30 05:47:08;;;;;;;0.20;0.20;;;;;;;13.23;100.00;102548.66;5050379;28;20512;-65
2024/01/30 05:49:34;;;;;;;0.20;0.20;;;;;;;13.10;100.00;102550.44;5050192;28;20055;-64
2024/01/30 05:52:01;;;;;;;0.20;0.20;;;;;;;13.45;100.00;102554.75;5050325;28;20033;-65
2024/01/30 05:54:27;;;;;;;0.35;0.35;;;;;;;13.42;100.00;102554.34;5050384;28;20126;-66
2024/01/30 05:56:52;;;;;;;0.30;0.30;;;;;;;13.35;100.00;102545.34;5050258;28;20120;-66
2024/01/30 05:59:18;;;;;;;0.17;0.17;;;;;;;13.61;100.00;102540.91;5061450;28;20505;-65
2024/01/30 06:01:47;;;;;;;0.30;0.30;;;;;;;13.76;100.00;102538.84;5070127;28;20396;-65
2024/01/30 06:04:13;;;;;;;0.30;0.30;;;;;;;13.61;100.00;102535.50;5069765;28;20024;-65
2024/01/30 06:06:38;;;;;;;0.30;0.30;;;;;;;13.70;100.00;102536.16;5070484;28;20423;-65
2024/01/30 06:09:04;;;;;;;0.20;0.20;;;;;;;13.55;100.00;102527.34;5070134;28;20039;-65
2024/01/30 06:11:29;;;;;;;0.10;0.10;;;;;;;13.75;100.00;102523.69;5069844;28;20040;-65
2024/01/30 06:13:54;;;;;;;0.10;0.10;;;;;;;13.72;100.00;102515.16;5070038;28;20391;-66
2024/01/30 06:16:21;;;;;;;0.22;0.22;;;;;;;13.68;100.00;102512.00;5070022;28;20077;-65
2024/01/30 06:18:47;;;;;;;0.28;0.28;;;;;;;13.86;100.00;102508.72;5078764;28;20029;-67
2024/01/30 06:21:13;;;;;;;0.35;0.35;;;;;;;13.79;100.00;102524.94;5072961;28;20067;-64
2024/01/30 06:23:38;;;;;;;0.32;0.32;;;;;;;13.95;100.00;102540.75;5069590;28;20028;-65
2024/01/30 06:26:03;;;;;;;0.30;0.30;;;;;;;13.46;100.00;102520.50;5069506;28;20033;-65
2024/01/30 06:28:29;;;;;;;0.32;0.32;;;;;;;13.59;100.00;102505.16;5069849;28;20610;-66
2024/01/30 06:30:54;;;;;;;0.20;0.20;;;;;;;13.58;100.00;102502.66;5069536;28;20108;-66
2024/01/30 06:33:20;;;;;;;0.35;0.35;;;;;;;13.52;100.00;102506.19;5069381;28;20467;-64
2024/01/30 06:35:45;;;;;;;0.20;0.20;;;;;;;13.71;100.00;102510.78;5073438;28;20024;-66
2024/01/30 06:38:11;;;;;;;0.25;0.25;;;;;;;13.89;100.00;102508.31;5080555;28;20455;-67
2024/01/30 06:40:37;;;;;;;0.30;0.30;;;;;;;14.04;100.00;102507.09;5089745;28;20391;-66
2024/01/30 06:43:04;;;;;;;0.30;0.30;;;;;;;14.05;100.00;102505.22;5089876;28;20551;-65
2024/01/30 06:45:29;;;;;;;0.20;0.20;;;;;;;14.04;100.00;102507.09;5089081;28;20043;-66
2024/01/30 06:47:54;;;;;;;0.30;0.30;;;;;;;14.02;100.00;102511.88;5077834;28;20103;-66
2024/01/30 06:50:20;;;;;;;0.20;0.20;;;;;;;14.27;100.00;102511.25;5071506;28;20036;-66
2024/01/30 06:52:45;;;;;;;0.30;0.30;;;;;;;13.93;100.00;102532.03;5069035;28;20500;-65
2024/01/30 06:55:11;;;;;;;0.55;0.55;;;;;;;13.42;100.00;102525.47;5069253;28;20097;-65
2024/01/30 06:57:36;;;;;;;0.22;0.22;;;;;;;13.84;100.00;102535.13;5069517;28;20021;-65
2024/01/30 07:00:02;;;;;;;0.30;0.30;;;;;;;14.19;100.00;102530.38;5068794;28;20119;-65
2024/01/30 07:02:27;;;;;;;0.40;0.40;;;;;;;14.18;100.00;102524.13;5074339;28;20069;-66
2024/01/30 07:04:53;;;;;;;0.38;0.38;;;;;;;14.16;100.00;102512.69;5089078;28;20034;-65
2024/01/30 07:07:18;;;;;;;0.30;0.30;;;;;;;13.66;100.00;102514.09;5089434;28;20028;-66
2024/01/30 07:09:43;;;;;;;0.30;0.30;;;;;;;13.96;100.00;102523.50;5089324;28;20099;-67
2024/01/30 07:12:09;;;;;;;0.30;0.30;;;;;;;13.71;100.00;102516.19;5078113;28;20060;-66
2024/01/30 07:14:34;;;;;;;0.45;0.45;;;;;;;13.91;100.00;102508.94;5089174;28;20057;-67
2024/01/30 07:16:59;;;;;;;0.30;0.30;;;;;;;13.53;100.00;102527.56;5075584;28;20376;-66
2024/01/30 07:19:25;;;;;;;0.40;0.40;;;;;;;13.51;100.00;102516.13;5078535;28;20391;-66
2024/01/30 07:21:50;;;;;;;0.30;0.30;;;;;;;13.38;100.00;102521.50;5078410;28;20296;-65
2024/01/30 07:24:15;;;;;;;0.30;0.30;;;;;;;13.66;100.00;102533.00;5076684;28;20071;-65
2024/01/30 07:26:41;;;;;;;0.30;0.30;;;;;;;13.84;100.00;102535.94;5060054;28;20415;-66
2024/01/30 07:29:06;;;;;;;0.38;0.38;;;;;;;13.49;100.00;102545.22;5077459;28;20103;-66
2024/01/30 07:31:31;;;;;;;0.30;0.30;;;;;;;13.79;100.00;102533.03;5077796;28;20090;-65
2024/01/30 07:33:57;;;;;;;0.38;0.38;;;;;;;13.88;100.00;102541.78;5078760;28;20027;-66
2024/01/30 07:36:22;;;;;;;0.50;0.50;;;;;;;13.82;100.00;102538.03;5073759;28;20017;-65
2024/01/30 07:38:47;;;;;;;0.30;0.30;;;;;;;13.75;100.00;102548.00;5068655;28;20028;-66
2024/01/30 07:41:13;;;;;;;0.40;0.40;;;;;;;14.10;100.00;102532.44;5068499;28;20112;-65
2024/01/30 07:43:38;;;;;;;0.30;0.30;;;;;;;14.16;100.00;102533.50;5059785;28;20440;-65
2024/01/30 07:46:06;;;;;;;0.30;0.30;;;;;;;14.30;100.00;102535.19;5061355;28;20095;-66
2024/01/30 07:48:33;;;;;;;0.20;0.20;;;;;;;13.60;100.00;102539.22;5077409;28;20046;-65
2024/01/30 07:50:59;;;;;;;0.22;0.22;;;;;;;14.15;100.00;102519.16;5071716;28;20044;-65
2024/01/30 07:53:24;;;;;;;0.28;0.28;;;;;;;14.22;100.00;102513.72;5066948;28;20021;-65
2024/01/30 07:55:50;;;;;;;0.30;0.30;;;;;;;14.29;100.00;102523.53;5067014;28;20029;-66
2024/01/30 07:58:15;;;;;;;0.30;0.30;;;;;;;14.40;100.00;102539.16;5085480;28;20051;-65
2024/01/30 08:00:41;;;;;;;0.20;0.20;;;;;;;14.44;100.00;102539.56;5089554;28;20023;-66
2024/01/30 08:03:06;;;;;;;0.30;0.30;;;;;;;14.07;100.00;102549.91;5091113;28;20052;-66
2024/01/30 08:05:31;;;;;;;0.20;0.20;;;;;;;14.61;100.00;102548.91;5090511;28;20059;-66
2024/01/30 08:07:57;;;;;;;0.30;0.30;;;;;;;14.67;100.00;102553.47;5090514;28;20043;-65
2024/01/30 08:10:22;;;;;;;0.20;0.20;;;;;;;14.50;100.00;102554.97;5080757;28;20032;-66
2024/01/30 08:12:48;;;;;;;0.40;0.40;;;;;;;14.61;100.00;102557.84;5054544;28;20115;-65
2024/01/30 08:15:13;;;;;;;0.40;0.40;;;;;;;14.39;100.00;102548.28;5051529;28;20120;-66
2024/01/30 08:17:39;;;;;;;0.43;0.43;;;;;;;14.34;100.00;102548.09;5073125;28;20033;-65
2024/01/30 08:20:05;;;;;;;0.30;0.30;;;;;;;14.05;100.00;102540.38;5069549;28;20515;-66
2024/01/30 08:22:30;;;;;;;0.22;0.22;;;;;;;14.58;100.00;102546.63;5073063;28;20507;-63
2024/01/30 08:24:56;;;;;;;0.30;0.30;;;;;;;14.71;100.00;102554.72;5070211;28;20032;-65
2024/01/30 08:27:21;;;;;;;0.20;0.20;;;;;;;14.92;100.00;102551.75;5055399;28;20028;-65
2024/01/30 08:29:46;;;;;;;0.50;0.50;;;;;;;14.64;100.00;102565.53;5086661;28;20059;-65
2024/01/30 08:32:12;;;;;;;0.40;0.40;;;;;;;14.85;100.00;102554.50;5089894;28;20082;-64
2024/01/30 08:34:37;;;;;;;0.40;0.40;;;;;;;15.05;100.00;102559.03;5089432;28;20040;-66
2024/01/30 08:37:03;;;;;;;0.25;0.25;;;;;;;14.70;100.00;102569.31;5075981;28;20118;-66
2024/01/30 08:39:28;;;;;;;0.28;0.28;;;;;;;14.87;100.00;102570.50;5069642;28;20032;-66
2024/01/30 08:41:54;;;;;;;0.50;0.50;;;;;;;14.61;100.00;102562.44;5075722;28;20060;-66
2024/01/30 08:44:19;;;;;;;0.20;0.20;;;;;;;14.56;100.00;102573.06;5073453;28;20039;-67
2024/01/30 08:46:45;;;;;;;0.40;0.40;;;;;;;14.84;100.00;102562.81;5069561;28;20055;-65
2024/01/30 08:49:13;;;;;;;0.40;0.40;;;;;;;15.55;100.00;102558.22;5074574;28;20047;-65
2024/01/30 08:51:38;;;;;;;0.30;0.30;;;;;;;15.67;100.00;102565.47;5090152;28;20048;-65
2024/01/30 08:54:04;;;;;;;0.20;0.20;;;;;;;16.23;100.00;102561.97;5089224;28;20052;-65
2024/01/30 08:56:29;;;;;;;0.20;0.20;;;;;;;16.07;100.00;102568.75;5089918;28;20070;-65
2024/01/30 08:58:55;;;;;;;0.30;0.30;;;;;;;15.97;100.00;102570.28;5089139;28;20531;-66
2024/01/30 09:01:20;;;;;;;0.30;0.30;;;;;;;16.50;100.00;102564.28;5085033;28;20158;-65
2024/01/30 09:03:46;;;;;;;0.30;0.30;;;;;;;16.53;100.00;102574.66;5079378;28;20388;-65
2024/01/30 09:06:12;;;;;;;0.20;0.20;;;;;;;16.48;100.00;102573.66;5079499;28;20359;-65
2024/01/30 09:08:38;;;;;;;0.30;0.30;;;;;;;16.01;100.00;102572.34;5077767;28;20141;-67
2024/01/30 09:11:13;;;;;;;0.22;0.22;;;;;;;15.81;100.00;102572.47;5077385;28;20024;-65
2024/01/30 09:13:39;;;;;;;0.28;0.28;;;;;;;16.08;100.00;102581.25;5077251;28;20399;-65
2024/01/30 09:16:05;;;;;;;0.20;0.20;;;;;;;16.22;100.00;102571.13;5078197;28;20054;-65
2024/01/30 09:18:30;;;;;;;0.30;0.30;;;;;;;16.67;100.00;102569.94;5078337;28;20440;-65
2024/01/30 09:20:56;;;;;;;0.28;0.28;;;;;;;16.76;100.00;102570.50;5078904;28;20449;-68
2024/01/30 09:23:21;;;;;;;0.40;0.40;;;;;;;16.03;100.00;102566.69;5068740;28;20028;-66
2024/01/30 09:25:47;;;;;;;0.40;0.40;;;;;;;16.06;100.00;102572.50;5074557;28;20028;-67
2024/01/30 09:28:12;;;;;;;0.30;0.30;;;;;;;16.01;100.00;102579.66;5068409;28;20033;-65
2024/01/30 09:30:38;;;;;;;0.40;0.40;;;;;;;15.79;100.00;102577.28;5068817;28;20024;-66
2024/01/30 09:33:03;;;;;;;0.20;0.20;;;;;;;16.29;100.00;102578.22;5069204;28;20115;-66
2024/01/30 09:35:29;;;;;;;0.30;0.30;;;;;;;16.00;100.00;102580.72;5067788;28;20037;-67
2024/01/30 09:37:55;;;;;;;0.20;0.20;;;;;;;16.58;100.00;102580.28;5068547;28;20055;-66
2024/01/30 09:40:20;;;;;;;0.20;0.20;;;;;;;16.60;100.00;102575.47;5073197;28;20488;-66
2024/01/30 09:42:51;;;;;;;0.30;0.30;;;;;;;16.73;100.00;102577.19;5055202;28;20027;-65
2024/01/30 09:45:18;;;;;;;0.30;0.30;;;;;;;16.91;100.00;102576.41;5073959;28;20495;-64
2024/01/30 09:47:45;;;;;;;0.30;0.30;;;;;;;16.56;100.00;102578.84;5070760;28;20242;-66
2024/01/30 09:50:12;;;;;;;0.28;0.28;;;;;;;17.11;100.00;102575.16;5068036;28;20531;-66
2024/01/30 09:52:38;;;;;;;0.20;0.20;;;;;;;16.12;100.00;102576.22;5068203;28;20097;-65
2024/01/30 09:55:06;;;;;;;0.20;0.20;;;;;;;16.55;100.00;102575.28;5068314;28;20107;-65
2024/01/30 09:57:31;;;;;;;0.20;0.20;;;;;;;17.06;100.00;102568.75;5074942;28;20169;-66
2024/01/30 09:59:57;;;;;;;0.30;0.30;;;;;;;16.97;100.00;102586.38;5076631;28;20028;-65
2024/01/30 10:02:23;;;;;;;0.20;0.20;;;;;;;16.27;100.00;102574.03;5076700;28;20476;-65
2024/01/30 10:04:49;;;;;;;0.40;0.40;;;;;;;16.53;100.00;102579.25;5076665;28;20043;-67
2024/01/30 10:07:15;;;;;;;0.30;0.30;;;;;;;16.36;100.00;102584.41;5075981;28;20217;-66
2024/01/30 10:09:40;;;;;;;0.25;0.25;;;;;;;16.02;100.00;102589.47;5076895;28;20131;-65
2024/01/30 10:12:07;;;;;;;0.30;0.30;;;;;;;16.38;100.00;102581.47;5071163;28;20032;-65
2024/01/30 10:14:33;;;;;;;0.20;0.20;;;;;;;15.98;100.00;102590.94;5067047;28;20217;-65
2024/01/30 10:16:59;;;;;;;0.30;0.30;;;;;;;16.16;100.00;102585.59;5059308;28;20116;-67
2024/01/30 10:19:24;;;;;;;0.32;0.32;;;;;;;16.70;100.00;102585.81;5067518;28;20028;-65
2024/01/30 10:21:49;;;;;;;0.28;0.28;;;;;;;16.25;100.00;102582.41;5060540;28;20368;-66
2024/01/30 10:24:15;;;;;;;0.20;0.20;;;;;;;16.46;100.00;102590.16;5072721;28;20032;-65
2024/01/30 10:26:40;;;;;;;0.40;0.40;;;;;;;16.49;100.00;102591.66;5067722;28;20399;-66
2024/01/30 10:29:06;;;;;;;0.20;0.20;;;;;;;16.43;100.00;102593.31;5070365;28;20419;-66
2024/01/30 10:31:31;;;;;;;0.20;0.20;;;;;;;16.37;100.00;102593.38;5066850;28;20055;-68
2024/01/30 10:33:57;;;;;;;0.20;0.20;;;;;;;16.26;100.00;102597.63;5067934;28;20024;-66
2024/01/30 10:36:29;;;;;;;0.20;0.20;;;;;;;16.18;100.00;102589.75;5079394;28;20032;-66
2024/01/30 10:38:57;;;;;;;0.35;0.35;;;;;;;15.61;100.00;102593.41;5067578;28;20391;-65
2024/01/30 10:41:27;;;;;;;0.35;0.35;;;;;;;16.04;100.00;102600.91;5067385;28;20437;-68
2024/01/30 10:44:02;;;;;;;0.20;0.20;;;;;;;16.38;100.00;102585.00;5066632;28;20388;-66
2024/01/30 10:46:31;;;;;;;0.20;0.20;;;;;;;16.30;100.00;102590.72;5067892;28;20327;-65
2024/01/30 10:49:01;;;;;;;0.22;0.22;;;;;;;15.98;100.00;102593.66;5067871;28;20048;-66
2024/01/30 10:51:27;;;;;;;0.20;0.20;;;;;;;16.27;100.00;102580.31;5067174;28;20167;-67
2024/01/30 10:53:56;;;;;;;0.40;0.40;;;;;;;16.06;100.00;102596.91;5067160;28;20114;-66
2024/01/30 10:56:22;;;;;;;0.30;0.30;;;;;;;16.40;100.00;102595.63;5067425;28;20029;-66
2024/01/30 10:58:55;;;;;;;0.30;0.30;;;;;;;16.70;100.00;102593.94;5059509;28;20032;-67
2024/01/30 11:01:25;;;;;;;0.30;0.30;;;;;;;16.44;100.00;102591.44;5046764;28;20045;-65
2024/01/30 11:03:51;;;;;;;0.30;0.30;;;;;;;16.46;100.00;102586.59;5064241;28;20040;-67
2024/01/30 11:06:18;;;;;;;0.20;0.20;;;;;;;16.60;100.00;102596.34;5067211;28;20028;-66
2024/01/30 11:08:45;;;;;;;0.30;0.30;;;;;;;17.15;100.00;102602.69;5067102;28;20040;-65
2024/01/30 11:11:10;;;;;;;0.30;0.30;;;;;;;16.04;100.00;102604.44;5067058;28;20024;-64